Kezdőlap
METAR-TAF:

METAR-TAF

Repülőterek :

Tanabe, Japán

földrajzi szélesség: 33-44N, földrajzi hosszúság: 135-23E, magasság: 105 m

Jelenlegi meteorológiai megfigyelések

A jelentés 9 órával és 36 perccel ezelõtt készült, 10:00 UTC
Dél-délkeleti szél 5 kt
Hőmérséklet 27°C
Páratartalom 84%
Légköri nyomás 1014 hPa
Látótávolság 10 km, vagy több
Kevés felhő 2000 lábon
Szórványos felhőzet 3000 lábon
Szakadozott felhőzet

METAR: RJBD 141000Z 15005KT 9999 FEW020 SCT030 BKN/// 27/24 Q1014

Idő: 04:36 (19:36 UTC)


TAF: hiányzik

Meteorológiai megfigyelések és előrejelzések több, mint 4000 repülőtéren (METAR és TAF jelentéseket).

A térképen piros és sárga pontok jelzik az elérhető meteorológiai állomásokat.

Mozgassa az egeret a pont fölött, hogy megjelenjen az állomás neve.

Azután kattintson az időjárási megfigyelések és előrejelzések megtekintéséhez.

A térkép megváltoztatása: kattintson a fekete keresztel jelölt zöld gombra ráközelítéshez, a vonallal jelölt zöld gombra távolításhoz, vagy a zöld nyilakra a szomszédos térképek eléréséhez.


METAR-TAF: